createdAt,value
2023-01-03T00:04:47.442Z,2.09
2023-01-03T00:19:32.929Z,1.79
2023-01-03T00:34:25.226Z,1.91
2023-01-03T01:04:08.752Z,2.12
2023-01-03T01:33:50.746Z,3.12
2023-01-03T01:48:42.208Z,2.71
2023-01-03T02:03:34.325Z,3.22
2023-01-03T02:18:43.666Z,2.81
2023-01-03T02:49:02.380Z,2.29
2023-01-03T03:03:57.388Z,3.19
2023-01-03T03:18:56.530Z,2.76
2023-01-03T04:04:36.907Z,2.42
2023-01-03T04:19:27.627Z,3.07
2023-01-03T04:34:17.993Z,2.77
2023-01-03T04:49:08.416Z,4.17
2023-01-03T05:03:59.157Z,2.98
2023-01-03T05:33:52.362Z,5.99
2023-01-03T05:48:42.386Z,4.20
2023-01-03T06:03:33.292Z,3.02
2023-01-03T06:18:24.244Z,4.53
2023-01-03T06:33:14.981Z,3.69
2023-01-03T06:48:23.998Z,3.30
2023-01-03T07:03:11.421Z,5.63
2023-01-03T07:17:59.355Z,2.99
2023-01-03T07:32:50.320Z,3.58
2023-01-03T07:47:47.351Z,5.83
2023-01-03T08:02:41.180Z,5.77
2023-01-03T08:17:31.818Z,5.98
2023-01-03T08:32:22.744Z,4.67
2023-01-03T08:47:14.231Z,6.03
2023-01-03T09:02:05.202Z,5.74
2023-01-03T09:17:01.087Z,5.26
2023-01-03T09:31:47.244Z,6.31
2023-01-03T10:01:52.346Z,5.20
2023-01-03T10:16:49.220Z,6.71
2023-01-03T10:32:06.279Z,3.89
2023-01-03T10:47:05.338Z,2.91
2023-01-03T11:02:02.941Z,3.50
2023-01-03T11:16:56.222Z,3.58
2023-01-03T12:03:04.838Z,3.42
2023-01-03T12:18:01.453Z,3.77
2023-01-03T12:32:58.936Z,2.68
2023-01-03T12:48:11.637Z,1.56
2023-01-03T13:03:39.394Z,1.39
2023-01-03T13:18:35.523Z,2.31
2023-01-03T13:33:26.841Z,1.91
2023-01-03T13:48:18.617Z,2.39
2023-01-03T14:03:15.022Z,2.19
2023-01-03T14:18:14.254Z,1.74
2023-01-03T14:33:18.086Z,3.03
2023-01-03T14:48:12.531Z,2.09
2023-01-03T15:03:03.305Z,1.74
2023-01-03T15:17:54.135Z,2.34
2023-01-03T15:33:03.468Z,2.90
2023-01-03T15:47:59.138Z,1.76
2023-01-03T16:02:49.437Z,1.39
2023-01-03T16:17:39.273Z,3.18
2023-01-03T16:32:30.223Z,4.62
2023-01-03T16:47:23.045Z,4.29
2023-01-03T17:02:15.665Z,11.47
2023-01-03T17:17:06.101Z,8.58
2023-01-03T17:31:56.794Z,6.78
2023-01-03T17:47:05.691Z,5.26
2023-01-03T18:02:00.708Z,6.88
2023-01-03T18:16:55.019Z,9.72
2023-01-03T18:31:41.249Z,10.54
2023-01-03T18:46:32.783Z,11.44
2023-01-03T19:16:31.871Z,11.33
2023-01-03T19:31:27.016Z,7.53
2023-01-03T19:46:19.407Z,7.62
2023-01-03T20:01:09.919Z,7.57
2023-01-03T20:16:01.101Z,6.17
2023-01-03T20:30:51.678Z,6.17
2023-01-03T20:45:42.464Z,5.76
2023-01-03T21:00:32.644Z,14.37
2023-01-03T21:15:28.596Z,6.81
2023-01-03T21:30:21.443Z,7.66
2023-01-03T21:45:11.338Z,7.16
2023-01-03T22:14:49.410Z,8.56
2023-01-03T22:29:39.848Z,7.53
2023-01-03T22:44:29.585Z,7.30
2023-01-03T22:59:20.524Z,6.30
2023-01-03T23:14:11.803Z,11.40
2023-01-03T23:29:02.580Z,6.96
2023-01-03T23:43:53.427Z,6.64
